createdAt,value
2023-04-23T00:00:13.233Z,13.40
2023-04-23T00:02:17.833Z,13.37
2023-04-23T00:04:23.525Z,13.33
2023-04-23T00:06:27.648Z,13.31
2023-04-23T00:08:31.307Z,13.31
2023-04-23T00:10:35.633Z,13.31
2023-04-23T00:12:38.997Z,13.25
2023-04-23T00:14:42.446Z,13.33
2023-04-23T00:16:46.009Z,13.33
2023-04-23T00:18:49.334Z,13.28
2023-04-23T00:20:51.995Z,13.31
2023-04-23T00:22:54.594Z,13.35
2023-04-23T00:24:57.202Z,13.28
2023-04-23T00:27:01.460Z,13.21
2023-04-23T00:29:04.090Z,13.18
2023-04-23T00:31:07.526Z,13.11
2023-04-23T00:33:10.486Z,13.21
2023-04-23T00:35:13.375Z,13.24
2023-04-23T00:37:17.085Z,13.12
2023-04-23T00:39:19.817Z,13.13
2023-04-23T00:41:22.678Z,13.07
2023-04-23T00:43:27.371Z,13.10
2023-04-23T00:45:30.201Z,13.18
2023-04-23T00:47:34.091Z,13.28
2023-04-23T00:49:37.287Z,13.13
2023-04-23T00:51:39.875Z,13.03
2023-04-23T00:53:42.499Z,12.97
2023-04-23T00:55:45.360Z,12.83
2023-04-23T00:57:48.737Z,12.79
2023-04-23T00:59:54.850Z,12.67
2023-04-23T01:01:58.172Z,12.67
2023-04-23T01:04:01.386Z,12.57
2023-04-23T01:06:04.574Z,12.50
2023-04-23T01:08:07.569Z,12.45
2023-04-23T01:10:12.065Z,12.41
2023-04-23T01:12:16.210Z,12.35
2023-04-23T01:14:18.849Z,12.32
2023-04-23T01:16:23.229Z,12.32
2023-04-23T01:18:26.743Z,12.33
2023-04-23T01:20:29.473Z,12.27
2023-04-23T01:22:34.210Z,12.24
2023-04-23T01:24:37.276Z,12.35
2023-04-23T01:26:40.286Z,12.41
2023-04-23T01:28:45.711Z,12.33
2023-04-23T01:30:49.371Z,12.28
2023-04-23T01:32:52.266Z,12.29
2023-04-23T01:34:56.913Z,12.31
2023-04-23T01:36:59.894Z,12.27
2023-04-23T01:39:03.999Z,12.24
2023-04-23T01:41:06.787Z,12.28
2023-04-23T01:43:11.028Z,12.25
2023-04-23T01:45:13.989Z,12.31
2023-04-23T01:47:18.573Z,12.23
2023-04-23T01:49:21.449Z,12.37
2023-04-23T01:51:25.665Z,12.35
2023-04-23T01:53:28.267Z,12.29
2023-04-23T01:55:32.797Z,12.34
2023-04-23T01:57:35.857Z,12.25
2023-04-23T01:59:38.672Z,12.17
2023-04-23T02:01:45.798Z,12.16
2023-04-23T02:03:50.786Z,12.22
2023-04-23T02:05:55.471Z,12.13
2023-04-23T02:07:58.188Z,12.16
2023-04-23T02:10:01.105Z,12.17
2023-04-23T02:12:05.322Z,12.22
2023-04-23T02:14:08.960Z,12.20
2023-04-23T02:16:13.086Z,12.26
2023-04-23T02:18:15.738Z,12.17
2023-04-23T02:20:18.702Z,12.17
2023-04-23T02:22:22.258Z,12.10
2023-04-23T02:24:24.893Z,12.06
2023-04-23T02:26:29.035Z,12.19
2023-04-23T02:28:33.119Z,12.02
2023-04-23T02:30:36.367Z,11.98
2023-04-23T02:32:39.745Z,12.00
2023-04-23T02:34:42.917Z,11.93
2023-04-23T02:36:45.951Z,11.91
2023-04-23T02:38:51.004Z,11.93
2023-04-23T02:40:53.583Z,12.04
2023-04-23T02:42:56.251Z,11.96
2023-04-23T02:45:00.238Z,11.73
2023-04-23T02:47:03.832Z,11.71
2023-04-23T02:49:06.827Z,11.73
2023-04-23T02:51:12.130Z,11.71
2023-04-23T02:53:14.785Z,11.62
2023-04-23T02:55:17.709Z,11.56
2023-04-23T02:57:21.322Z,11.49
2023-04-23T02:59:24.016Z,11.49
2023-04-23T03:01:28.328Z,11.45
2023-04-23T03:03:34.477Z,11.35
2023-04-23T03:05:37.414Z,11.45
2023-04-23T03:07:40.133Z,11.41
2023-04-23T03:09:42.738Z,11.46
2023-04-23T03:11:45.420Z,11.50
2023-04-23T03:13:48.014Z,11.44
2023-04-23T03:15:51.667Z,11.34
2023-04-23T03:17:55.992Z,11.34
2023-04-23T03:19:58.709Z,11.42
2023-04-23T03:22:03.725Z,11.35
2023-04-23T03:24:06.776Z,11.39
2023-04-23T03:26:09.482Z,11.34
2023-04-23T03:28:12.246Z,11.35
2023-04-23T03:30:14.992Z,11.47
2023-04-23T03:32:17.644Z,11.25
2023-04-23T03:34:21.585Z,11.20
2023-04-23T03:36:24.353Z,11.22
2023-04-23T03:38:27.080Z,11.19
2023-04-23T03:40:29.805Z,11.13
2023-04-23T03:42:32.469Z,11.11
2023-04-23T03:44:35.102Z,11.10
2023-04-23T03:46:37.840Z,11.12
2023-04-23T03:48:40.740Z,11.15
2023-04-23T03:50:44.752Z,11.11
2023-04-23T03:52:47.438Z,10.99
2023-04-23T03:54:50.198Z,11.03
2023-04-23T03:56:52.861Z,11.05
2023-04-23T03:58:55.912Z,11.03
2023-04-23T04:00:58.682Z,11.05
2023-04-23T04:03:02.224Z,11.02
2023-04-23T04:05:05.567Z,10.96
2023-04-23T04:07:12.064Z,11.00
2023-04-23T04:09:14.650Z,11.12
2023-04-23T04:11:17.484Z,11.00
2023-04-23T04:13:20.126Z,11.01
2023-04-23T04:15:23.341Z,11.02
2023-04-23T04:17:26.358Z,10.99
2023-04-23T04:19:29.084Z,10.89
2023-04-23T04:21:32.183Z,10.93
2023-04-23T04:23:36.727Z,10.93
2023-04-23T04:25:40.153Z,10.83
2023-04-23T04:27:43.680Z,10.84
2023-04-23T04:29:46.357Z,10.81
2023-04-23T04:31:49.385Z,10.82
2023-04-23T04:34:00.294Z,10.81
2023-04-23T04:36:03.669Z,10.84
2023-04-23T04:38:06.427Z,10.84
2023-04-23T04:40:12.596Z,10.82
2023-04-23T04:42:15.781Z,10.77
2023-04-23T04:44:18.996Z,10.78
2023-04-23T04:46:20.854Z,10.88
2023-04-23T04:48:23.501Z,10.78
2023-04-23T04:50:26.362Z,10.69
2023-04-23T04:52:28.980Z,10.73
2023-04-23T04:54:31.626Z,10.71
2023-04-23T04:56:35.799Z,10.69
2023-04-23T04:58:38.527Z,10.78
2023-04-23T05:00:41.313Z,10.83
2023-04-23T05:02:44.099Z,10.84
2023-04-23T05:04:46.862Z,10.84
2023-04-23T05:06:49.500Z,10.72
2023-04-23T05:08:52.193Z,10.69
2023-04-23T05:10:55.024Z,10.77
2023-04-23T05:12:59.168Z,10.76
2023-04-23T05:15:01.838Z,10.92
2023-04-23T05:17:04.745Z,10.98
2023-04-23T05:19:08.172Z,10.99
2023-04-23T05:21:10.932Z,11.15
2023-04-23T05:23:13.828Z,11.27
2023-04-23T05:25:16.579Z,11.37
2023-04-23T05:27:19.557Z,11.15
2023-04-23T05:29:23.574Z,11.01
2023-04-23T05:31:28.147Z,11.08
2023-04-23T05:33:39.104Z,11.03
2023-04-23T05:35:49.314Z,11.29
2023-04-23T05:37:52.027Z,11.30
2023-04-23T05:39:54.750Z,11.17
2023-04-23T05:41:58.062Z,11.14
2023-04-23T05:44:00.742Z,11.16
2023-04-23T05:46:07.127Z,11.08
2023-04-23T05:48:09.848Z,11.17
2023-04-23T05:50:12.655Z,11.23
2023-04-23T05:52:15.415Z,11.43
2023-04-23T05:54:18.109Z,11.31
2023-04-23T05:56:23.488Z,11.39
2023-04-23T05:58:26.548Z,11.47
2023-04-23T06:00:29.514Z,11.55
2023-04-23T06:02:34.787Z,11.45
2023-04-23T06:04:37.834Z,11.60
2023-04-23T06:06:40.885Z,11.59
2023-04-23T06:08:43.601Z,11.57
2023-04-23T06:10:46.350Z,11.54
2023-04-23T06:12:50.036Z,11.86
2023-04-23T06:14:53.735Z,12.10
2023-04-23T06:16:56.423Z,12.20
2023-04-23T06:19:00.477Z,12.12
2023-04-23T06:21:04.338Z,12.24
2023-04-23T06:23:07.296Z,12.09
2023-04-23T06:25:10.764Z,12.26
2023-04-23T06:27:14.257Z,12.45
2023-04-23T06:29:16.933Z,12.05
2023-04-23T06:31:20.203Z,12.15
2023-04-23T06:33:22.887Z,12.00
2023-04-23T06:35:27.039Z,12.11
2023-04-23T06:37:30.893Z,12.17
2023-04-23T06:39:33.705Z,12.19
2023-04-23T06:41:36.428Z,12.02
2023-04-23T06:43:39.114Z,12.42
2023-04-23T06:45:41.971Z,12.59
2023-04-23T06:47:44.881Z,12.79
2023-04-23T06:49:47.558Z,13.15
2023-04-23T06:51:51.652Z,13.32
2023-04-23T06:53:54.492Z,12.89
2023-04-23T06:55:57.132Z,13.25
2023-04-23T06:57:59.944Z,14.03
2023-04-23T07:00:02.761Z,13.81
2023-04-23T07:02:05.672Z,13.90
2023-04-23T07:04:08.395Z,13.97
2023-04-23T07:06:11.203Z,14.40
2023-04-23T07:08:15.305Z,13.69
2023-04-23T07:10:18.296Z,13.28
2023-04-23T07:12:21.167Z,14.02
2023-04-23T07:14:23.876Z,13.68
2023-04-23T07:16:29.524Z,13.64
2023-04-23T07:18:32.216Z,14.14
2023-04-23T07:20:35.138Z,13.60
2023-04-23T07:22:37.834Z,13.73
2023-04-23T07:24:42.304Z,15.01
2023-04-23T07:26:46.226Z,16.06
2023-04-23T07:28:52.561Z,17.06
2023-04-23T07:30:56.108Z,15.46
2023-04-23T07:32:58.917Z,14.44
2023-04-23T07:35:01.643Z,13.82
2023-04-23T07:37:04.252Z,14.54
2023-04-23T07:39:07.300Z,15.03
2023-04-23T07:41:11.360Z,13.99
2023-04-23T07:43:14.802Z,14.27
2023-04-23T07:45:17.704Z,14.40
2023-04-23T07:47:20.766Z,13.95
2023-04-23T07:49:23.391Z,13.64
2023-04-23T07:51:26.889Z,13.92
2023-04-23T07:53:29.920Z,14.23
2023-04-23T07:55:32.622Z,14.48
2023-04-23T07:57:36.698Z,15.23
2023-04-23T07:59:40.175Z,14.72
2023-04-23T08:01:43.045Z,13.88
2023-04-23T08:03:45.863Z,15.52
2023-04-23T08:05:48.755Z,15.84
2023-04-23T08:07:51.412Z,17.18
2023-04-23T08:09:54.073Z,17.64
2023-04-23T08:11:57.548Z,16.59
2023-04-23T08:14:01.662Z,17.24
2023-04-23T08:16:04.447Z,18.38
2023-04-23T08:18:07.329Z,16.05
2023-04-23T08:20:10.549Z,16.11
2023-04-23T08:22:13.390Z,15.83
2023-04-23T08:24:16.059Z,16.29
2023-04-23T08:26:19.122Z,16.58
2023-04-23T08:28:21.775Z,16.49
2023-04-23T08:30:26.015Z,15.94
2023-04-23T08:32:30.819Z,14.92
2023-04-23T08:34:35.649Z,16.24
2023-04-23T08:36:38.612Z,15.19
2023-04-23T08:38:41.356Z,15.43
2023-04-23T08:40:46.239Z,16.02
2023-04-23T08:42:51.650Z,15.78
2023-04-23T08:44:56.294Z,16.94
2023-04-23T08:47:05.514Z,16.19
2023-04-23T08:49:08.938Z,15.62
2023-04-23T08:51:18.679Z,15.20
2023-04-23T08:53:27.917Z,14.86
2023-04-23T08:55:31.316Z,14.71
2023-04-23T08:57:34.583Z,14.59
2023-04-23T08:59:38.527Z,15.35
2023-04-23T09:01:42.734Z,15.10
2023-04-23T09:03:48.262Z,15.01
2023-04-23T09:05:53.088Z,15.52
2023-04-23T09:07:55.755Z,16.17
2023-04-23T09:09:58.487Z,16.35
2023-04-23T09:12:01.319Z,15.94
2023-04-23T09:14:04.668Z,15.86
2023-04-23T09:16:07.574Z,16.66
2023-04-23T09:18:11.272Z,16.34
2023-04-23T09:20:15.944Z,16.92
2023-04-23T09:22:39.211Z,15.95
2023-04-23T09:24:44.111Z,15.84
2023-04-23T09:26:48.602Z,16.72
2023-04-23T09:28:52.311Z,16.89
2023-04-23T09:30:55.007Z,19.10
2023-04-23T09:32:57.899Z,18.71
2023-04-23T09:35:03.243Z,19.91
2023-04-23T09:37:10.979Z,19.20
2023-04-23T09:39:14.409Z,19.06
2023-04-23T09:41:24.321Z,20.24
2023-04-23T09:43:31.678Z,19.46
2023-04-23T09:45:35.352Z,19.83
2023-04-23T09:47:40.299Z,19.18
2023-04-23T09:49:47.733Z,19.54
2023-04-23T09:51:50.605Z,16.14
2023-04-23T09:53:55.242Z,17.33
2023-04-23T09:55:57.929Z,18.69
2023-04-23T09:58:01.248Z,17.98
2023-04-23T10:00:15.586Z,18.15
2023-04-23T10:02:18.792Z,17.36
2023-04-23T10:04:23.130Z,18.87
2023-04-23T10:08:39.782Z,19.68
2023-04-23T10:11:02.501Z,19.23
2023-04-23T10:13:09.793Z,18.35
2023-04-23T10:15:13.429Z,18.57
2023-04-23T10:17:16.339Z,19.61
2023-04-23T10:19:22.624Z,19.00
2023-04-23T10:21:32.143Z,19.67
2023-04-23T10:23:42.558Z,18.79
2023-04-23T10:25:48.794Z,18.28
2023-04-23T10:27:54.593Z,18.68
2023-04-23T10:29:58.678Z,18.89
2023-04-23T10:32:04.226Z,18.30
2023-04-23T10:34:08.371Z,18.59
2023-04-23T10:36:12.031Z,18.20
2023-04-23T10:38:15.707Z,18.58
2023-04-23T10:40:22.321Z,17.99
2023-04-23T10:42:27.422Z,18.05
2023-04-23T10:44:57.438Z,18.51
2023-04-23T10:47:01.845Z,17.85
2023-04-23T10:49:13.757Z,18.07
2023-04-23T10:52:02.432Z,18.96
2023-04-23T10:53:43.257Z,18.95
2023-04-23T10:55:46.111Z,17.87
2023-04-23T10:58:04.611Z,17.63
2023-04-23T11:00:09.699Z,18.88
2023-04-23T11:02:13.690Z,18.27
2023-04-23T11:04:24.524Z,17.99
2023-04-23T11:07:06.267Z,18.26
2023-04-23T11:09:30.450Z,18.96
2023-04-23T11:11:41.135Z,16.92
2023-04-23T11:13:54.784Z,17.81
2023-04-23T11:16:16.911Z,18.43
2023-04-23T11:18:19.735Z,18.47
2023-04-23T11:20:24.813Z,18.15
2023-04-23T11:22:35.872Z,17.82
2023-04-23T11:24:42.296Z,18.72
2023-04-23T11:26:46.434Z,18.76
2023-04-23T11:28:50.847Z,17.98
2023-04-23T11:30:55.118Z,18.70
2023-04-23T11:32:59.909Z,19.11
2023-04-23T11:35:05.182Z,18.13
2023-04-23T11:37:11.412Z,18.55
2023-04-23T11:39:14.482Z,18.22
2023-04-23T11:41:24.151Z,18.27
2023-04-23T11:43:29.325Z,19.23
2023-04-23T11:45:31.971Z,18.87
2023-04-23T11:47:36.841Z,19.12
2023-04-23T11:49:40.037Z,18.50
2023-04-23T11:51:44.805Z,18.69
2023-04-23T11:53:48.032Z,19.29
2023-04-23T11:55:50.945Z,19.40
2023-04-23T11:57:53.870Z,19.53
2023-04-23T11:59:56.547Z,18.48
2023-04-23T12:02:00.811Z,19.24
2023-04-23T12:04:15.221Z,19.30
2023-04-23T12:06:19.343Z,19.28
2023-04-23T12:08:22.325Z,19.49
2023-04-23T12:10:25.271Z,19.17
2023-04-23T12:12:34.289Z,19.44
2023-04-23T12:14:36.954Z,18.90
2023-04-23T12:16:41.401Z,18.12
2023-04-23T12:18:44.432Z,18.08
2023-04-23T12:20:48.601Z,17.96
2023-04-23T12:22:51.276Z,17.87
2023-04-23T12:24:54.840Z,17.99
2023-04-23T12:27:00.667Z,18.24
2023-04-23T12:29:03.675Z,18.12
2023-04-23T12:31:06.365Z,18.11
2023-04-23T12:33:12.360Z,18.80
2023-04-23T12:35:15.065Z,19.40
2023-04-23T12:37:19.233Z,19.45
2023-04-23T12:39:26.859Z,19.57
2023-04-23T12:41:31.156Z,19.72
2023-04-23T12:43:35.656Z,20.52
2023-04-23T12:45:39.187Z,20.26
2023-04-23T12:47:41.898Z,20.31
2023-04-23T12:49:45.039Z,20.30
2023-04-23T12:51:48.140Z,19.89
2023-04-23T12:53:52.312Z,19.39
2023-04-23T12:55:55.197Z,19.07
2023-04-23T12:57:57.879Z,19.65
2023-04-23T13:00:00.559Z,19.52
2023-04-23T13:02:04.596Z,19.26
2023-04-23T13:04:07.801Z,20.00
2023-04-23T13:06:10.605Z,19.52
2023-04-23T13:08:13.372Z,19.22
2023-04-23T13:10:17.724Z,19.24
2023-04-23T13:12:20.436Z,20.06
2023-04-23T13:14:23.112Z,19.92
2023-04-23T13:16:25.910Z,19.26
2023-04-23T13:18:29.017Z,19.66
2023-04-23T13:20:31.671Z,19.63
2023-04-23T13:22:34.410Z,19.14
2023-04-23T13:24:37.129Z,19.38
2023-04-23T13:26:41.196Z,19.93
2023-04-23T13:28:44.599Z,19.91
2023-04-23T13:30:47.252Z,19.72
2023-04-23T13:32:49.970Z,20.08
2023-04-23T13:34:52.617Z,19.53
2023-04-23T13:36:55.446Z,20.12
2023-04-23T13:38:58.361Z,19.78
2023-04-23T13:41:01.062Z,20.57
2023-04-23T13:43:05.165Z,20.22
2023-04-23T13:45:09.038Z,19.79
2023-04-23T13:47:11.648Z,19.22
2023-04-23T13:49:14.335Z,19.36
2023-04-23T13:51:33.324Z,19.21
2023-04-23T13:53:37.786Z,19.19
2023-04-23T13:55:40.628Z,19.46
2023-04-23T13:57:43.388Z,19.19
2023-04-23T13:59:47.421Z,19.11
2023-04-23T14:01:50.509Z,20.00
2023-04-23T14:03:53.275Z,20.22
2023-04-23T14:05:55.971Z,19.82
2023-04-23T14:07:58.599Z,19.22
2023-04-23T14:10:01.384Z,19.96
2023-04-23T14:12:04.510Z,20.29
2023-04-23T14:14:07.460Z,19.40
2023-04-23T14:16:11.491Z,19.38
2023-04-23T14:18:14.608Z,19.68
2023-04-23T14:20:19.912Z,19.24
2023-04-23T14:22:22.625Z,19.09
2023-04-23T14:24:33.921Z,19.72
2023-04-23T14:28:47.915Z,20.02
2023-04-23T14:30:50.692Z,19.88
2023-04-23T14:32:56.470Z,20.00
2023-04-23T14:34:59.332Z,20.26
2023-04-23T14:37:02.049Z,19.80
2023-04-23T14:39:05.682Z,19.52
2023-04-23T14:41:08.412Z,19.53
2023-04-23T14:43:15.584Z,19.30
2023-04-23T14:45:19.240Z,19.22
2023-04-23T14:47:21.943Z,19.10
2023-04-23T14:49:26.110Z,19.33
2023-04-23T14:51:28.878Z,19.62
2023-04-23T14:53:31.462Z,19.16
2023-04-23T14:55:34.259Z,19.49
2023-04-23T14:57:36.956Z,19.23
2023-04-23T14:59:39.914Z,19.07
2023-04-23T15:01:42.917Z,19.21
2023-04-23T15:03:46.921Z,19.33
2023-04-23T15:05:51.166Z,19.33
2023-04-23T15:07:53.759Z,19.43
2023-04-23T15:09:56.432Z,19.88
2023-04-23T15:11:59.104Z,19.55
2023-04-23T15:14:04.497Z,19.56
2023-04-23T15:16:10.921Z,19.37
2023-04-23T15:18:15.526Z,19.24
2023-04-23T15:20:18.201Z,19.27
2023-04-23T15:22:22.205Z,19.27
2023-04-23T15:24:24.882Z,19.49
2023-04-23T15:26:27.677Z,19.34
2023-04-23T15:28:30.705Z,19.26
2023-04-23T15:30:33.455Z,19.17
2023-04-23T15:32:36.118Z,19.00
2023-04-23T15:34:38.705Z,18.82
2023-04-23T15:36:41.389Z,18.72
2023-04-23T15:38:45.550Z,17.86
2023-04-23T15:40:49.668Z,16.12
2023-04-23T15:42:52.310Z,15.71
2023-04-23T15:44:55.829Z,15.68
2023-04-23T15:47:01.258Z,15.77
2023-04-23T15:49:05.375Z,15.35
2023-04-23T15:51:09.664Z,15.14
2023-04-23T15:53:12.576Z,15.02
2023-04-23T15:55:16.778Z,15.07
2023-04-23T15:57:19.994Z,15.11
2023-04-23T15:59:22.659Z,15.26
2023-04-23T16:01:27.063Z,15.45
2023-04-23T16:03:30.251Z,15.78
2023-04-23T16:05:33.097Z,15.70
2023-04-23T16:07:35.814Z,15.76
2023-04-23T16:09:38.545Z,15.78
2023-04-23T16:11:42.690Z,15.66
2023-04-23T16:13:45.474Z,15.62
2023-04-23T16:15:48.223Z,15.52
2023-04-23T16:17:52.619Z,15.52
2023-04-23T16:19:55.428Z,15.48
2023-04-23T16:21:58.083Z,15.57
2023-04-23T16:24:00.883Z,15.66
2023-04-23T16:26:08.500Z,15.59
2023-04-23T16:28:13.770Z,15.66
2023-04-23T16:30:16.896Z,15.58
2023-04-23T16:32:19.692Z,14.73
2023-04-23T16:34:22.305Z,13.87
2023-04-23T16:36:25.045Z,13.29
2023-04-23T16:38:27.723Z,13.36
2023-04-23T16:40:30.314Z,13.45
2023-04-23T16:42:32.998Z,13.20
2023-04-23T16:44:37.086Z,13.07
2023-04-23T16:46:39.958Z,13.05
2023-04-23T16:48:43.042Z,13.12
2023-04-23T16:50:45.676Z,13.03
2023-04-23T16:52:48.479Z,13.08
2023-04-23T16:54:51.267Z,12.90
2023-04-23T16:56:53.977Z,12.96
2023-04-23T16:58:56.745Z,13.08
2023-04-23T17:01:00.721Z,13.13
2023-04-23T17:03:03.509Z,13.21
2023-04-23T17:05:07.128Z,13.25
2023-04-23T17:07:09.761Z,13.04
2023-04-23T17:09:12.368Z,13.16
2023-04-23T17:11:15.092Z,13.08
2023-04-23T17:13:17.675Z,13.16
2023-04-23T17:15:20.328Z,13.15
2023-04-23T17:17:24.684Z,12.97
2023-04-23T17:19:27.366Z,12.90
2023-04-23T17:21:30.025Z,13.06
2023-04-23T17:23:32.662Z,12.79
2023-04-23T17:25:35.336Z,12.90
2023-04-23T17:27:38.070Z,12.87
2023-04-23T17:29:41.019Z,12.69
2023-04-23T17:31:43.760Z,12.71
2023-04-23T17:33:49.416Z,12.80
2023-04-23T17:35:55.141Z,12.78
2023-04-23T17:37:57.843Z,12.63
2023-04-23T17:40:00.484Z,12.70
2023-04-23T17:42:03.081Z,12.63
2023-04-23T17:44:05.775Z,12.81
2023-04-23T17:46:08.490Z,12.86
2023-04-23T17:48:11.221Z,12.76
2023-04-23T17:50:15.288Z,12.74
2023-04-23T17:52:17.958Z,12.79
2023-04-23T17:54:20.708Z,12.85
2023-04-23T17:56:23.768Z,12.72
2023-04-23T17:58:26.834Z,12.85
2023-04-23T18:00:29.705Z,12.83
2023-04-23T18:02:32.418Z,12.88
2023-04-23T18:04:36.130Z,12.83
2023-04-23T18:06:40.300Z,12.80
2023-04-23T18:08:43.038Z,12.81
2023-04-23T18:10:46.636Z,12.91
2023-04-23T18:12:50.112Z,12.98
2023-04-23T18:14:52.863Z,13.06
2023-04-23T18:16:55.633Z,12.87
2023-04-23T18:18:58.404Z,12.84
2023-04-23T18:21:02.786Z,12.74
2023-04-23T18:23:08.706Z,12.80
2023-04-23T18:25:11.670Z,12.80
2023-04-23T18:27:14.454Z,12.68
2023-04-23T18:29:17.068Z,12.64
2023-04-23T18:31:19.846Z,12.69
2023-04-23T18:33:31.572Z,12.54
2023-04-23T18:35:34.205Z,12.49
2023-04-23T18:37:43.762Z,12.50
2023-04-23T18:39:47.865Z,12.47
2023-04-23T18:41:50.843Z,12.59
2023-04-23T18:43:53.846Z,12.54
2023-04-23T18:45:56.852Z,12.59
2023-04-23T18:48:06.151Z,12.37
2023-04-23T18:50:11.699Z,12.42
2023-04-23T18:52:14.421Z,12.40
2023-04-23T18:54:17.807Z,12.35
2023-04-23T18:56:21.826Z,12.42
2023-04-23T18:58:25.525Z,12.42
2023-04-23T19:00:28.309Z,12.33
2023-04-23T19:02:35.496Z,12.32
2023-04-23T19:04:38.985Z,12.36
2023-04-23T19:06:42.208Z,12.23
2023-04-23T19:08:44.799Z,12.30
2023-04-23T19:10:47.724Z,12.24
2023-04-23T19:12:51.789Z,12.31
2023-04-23T19:14:54.410Z,12.29
2023-04-23T19:16:57.116Z,12.40
2023-04-23T19:19:00.011Z,12.48
2023-04-23T19:21:03.530Z,12.58
2023-04-23T19:23:06.182Z,12.52
2023-04-23T19:25:09.647Z,12.31
2023-04-23T19:27:12.337Z,12.25
2023-04-23T19:29:16.489Z,12.34
2023-04-23T19:31:19.358Z,12.11
2023-04-23T19:33:22.050Z,12.18
2023-04-23T19:35:24.773Z,11.85
2023-04-23T19:37:27.491Z,11.86
2023-04-23T19:39:30.281Z,11.65
2023-04-23T19:41:32.884Z,11.68
2023-04-23T19:43:35.609Z,11.43
2023-04-23T19:45:39.667Z,11.53
2023-04-23T19:47:42.477Z,11.33
2023-04-23T19:49:45.356Z,11.35
2023-04-23T19:51:48.454Z,11.23
2023-04-23T19:53:51.297Z,11.14
2023-04-23T19:55:54.026Z,11.17
2023-04-23T19:57:58.399Z,11.24
2023-04-23T20:00:01.202Z,11.18
2023-04-23T20:02:05.256Z,11.07
2023-04-23T20:04:09.385Z,11.04
2023-04-23T20:06:12.319Z,11.07
2023-04-23T20:08:25.931Z,11.01
2023-04-23T20:10:30.634Z,11.04
2023-04-23T20:12:33.955Z,10.91
2023-04-23T20:14:36.825Z,10.80
2023-04-23T20:16:39.840Z,10.71
2023-04-23T20:18:43.983Z,10.66
2023-04-23T20:20:47.229Z,10.62
2023-04-23T20:22:50.149Z,10.48
2023-04-23T20:24:52.840Z,10.44
2023-04-23T20:26:56.554Z,10.47
2023-04-23T20:28:59.307Z,10.51
2023-04-23T20:31:02.027Z,10.40
2023-04-23T20:33:04.780Z,10.38
2023-04-23T20:35:10.048Z,10.34
2023-04-23T20:37:13.629Z,10.37
2023-04-23T20:39:21.038Z,10.30
2023-04-23T20:41:24.912Z,10.26
2023-04-23T20:43:27.619Z,10.22
2023-04-23T20:45:30.195Z,10.22
2023-04-23T20:47:33.092Z,10.21
2023-04-23T20:49:35.849Z,10.22
2023-04-23T20:51:39.935Z,10.18
2023-04-23T20:53:42.630Z,10.23
2023-04-23T20:55:45.402Z,10.16
2023-04-23T20:57:48.020Z,10.15
2023-04-23T20:59:50.970Z,10.13
2023-04-23T21:01:53.840Z,10.21
2023-04-23T21:03:56.837Z,10.13
2023-04-23T21:05:59.698Z,10.18
2023-04-23T21:08:03.827Z,10.20
2023-04-23T21:10:07.530Z,10.10
2023-04-23T21:12:10.328Z,10.05
2023-04-23T21:14:13.075Z,10.06
2023-04-23T21:16:16.014Z,10.18
2023-04-23T21:18:19.325Z,10.11
2023-04-23T21:20:22.042Z,10.11
2023-04-23T21:22:24.711Z,10.05
2023-04-23T21:24:28.720Z,10.02
2023-04-23T21:26:32.607Z,9.98
2023-04-23T21:28:35.343Z,9.98
2023-04-23T21:30:46.048Z,10.01
2023-04-23T21:32:48.956Z,9.93
2023-04-23T21:34:51.584Z,10.00
2023-04-23T21:36:54.397Z,9.97
2023-04-23T21:38:57.085Z,9.95
2023-04-23T21:41:01.332Z,9.94
2023-04-23T21:43:04.842Z,9.92
2023-04-23T21:45:08.695Z,9.87
2023-04-23T21:47:11.571Z,9.90
2023-04-23T21:49:14.493Z,9.89
2023-04-23T21:51:17.763Z,9.86
2023-04-23T21:53:21.341Z,9.93
2023-04-23T21:55:24.487Z,9.95
2023-04-23T21:57:28.582Z,9.91
2023-04-23T21:59:31.231Z,9.89
2023-04-23T22:01:36.518Z,9.97
2023-04-23T22:03:42.477Z,9.93
2023-04-23T22:05:45.679Z,9.94
2023-04-23T22:07:48.666Z,9.97
2023-04-23T22:09:51.487Z,10.00
2023-04-23T22:12:01.881Z,9.99
2023-04-23T22:14:07.284Z,9.95
2023-04-23T22:16:24.548Z,9.96
2023-04-23T22:18:30.748Z,10.00
2023-04-23T22:20:33.908Z,10.01
2023-04-23T22:22:37.423Z,10.05
2023-04-23T22:24:40.024Z,9.98
2023-04-23T22:26:42.796Z,10.00
2023-04-23T22:28:45.994Z,9.99
2023-04-23T22:30:51.763Z,10.06
2023-04-23T22:32:54.442Z,10.02
2023-04-23T22:34:57.490Z,10.02
2023-04-23T22:37:00.430Z,10.07
2023-04-23T22:39:04.660Z,10.12
2023-04-23T22:41:07.796Z,10.14
2023-04-23T22:43:10.843Z,10.10
2023-04-23T22:45:13.603Z,10.10
2023-04-23T22:47:17.812Z,10.07
2023-04-23T22:49:20.579Z,10.08
2023-04-23T22:51:23.236Z,10.13
2023-04-23T22:53:26.113Z,10.17
2023-04-23T22:55:28.901Z,10.20
2023-04-23T22:57:31.728Z,10.23
2023-04-23T22:59:34.407Z,10.23
2023-04-23T23:01:37.238Z,10.19
2023-04-23T23:03:41.548Z,10.18
2023-04-23T23:05:44.747Z,10.13
2023-04-23T23:07:47.770Z,10.18
2023-04-23T23:09:50.792Z,10.22
2023-04-23T23:11:53.774Z,10.24
2023-04-23T23:13:57.280Z,10.23
2023-04-23T23:16:02.439Z,10.22
2023-04-23T23:18:06.105Z,10.28
2023-04-23T23:20:12.320Z,10.28
2023-04-23T23:22:15.152Z,10.25
2023-04-23T23:24:19.153Z,10.34
2023-04-23T23:26:22.079Z,10.26
2023-04-23T23:28:25.037Z,10.32
2023-04-23T23:30:27.714Z,10.39
2023-04-23T23:32:31.117Z,10.36
2023-04-23T23:34:33.763Z,10.31
2023-04-23T23:36:37.814Z,10.33
2023-04-23T23:38:40.573Z,10.32
2023-04-23T23:40:43.206Z,10.39
2023-04-23T23:42:45.868Z,10.35
2023-04-23T23:44:48.491Z,10.39
2023-04-23T23:46:52.034Z,10.34
2023-04-23T23:48:54.838Z,10.29
2023-04-23T23:50:57.587Z,10.34
2023-04-23T23:53:01.648Z,10.36
2023-04-23T23:55:04.546Z,10.20
2023-04-23T23:57:07.225Z,10.20
2023-04-23T23:59:09.950Z,10.23
